Terminal Aerodrome Forecast
Issued by NWS Dallas/Fort Worth, TX

Home | Current Version | Previous Version | Text Only | Print | Product List | Glossary On
Versions: 1 2 3 4 5 6 7 8 9 10 11 12 13 14 15 16 17 18 19 20 21 22 23 24 25 26 27 28
000
FTUS44 KFWD 292100 AAA
TAFACT
TAF AMD
KACT 292100Z 2921/3018 14009KT P6SM SCT040
     FM300700 16006KT P6SM VCTS FEW020 BKN100CB
     FM301000 14008KT P6SM BKN020
     FM301600 17009KT P6SM SCT100=

USA.gov is the U.S. government's official web portal to all federal, state and local government web resources and services.